createdAt,value
2018-06-23T00:02:44.775Z,2.30
2018-06-23T00:05:47.993Z,2.73
2018-06-23T00:08:50.269Z,2.50
2018-06-23T00:11:52.483Z,2.93
2018-06-23T00:14:54.685Z,3.23
2018-06-23T00:17:56.853Z,2.87
2018-06-23T00:20:59.185Z,2.80
2018-06-23T00:24:01.391Z,3.50
2018-06-23T00:27:03.874Z,3.20
2018-06-23T00:30:06.056Z,3.40
2018-06-23T00:33:08.287Z,4.13
2018-06-23T00:36:10.521Z,3.73
2018-06-23T00:39:12.728Z,4.27
2018-06-23T00:42:14.939Z,3.90
2018-06-23T00:45:17.180Z,3.53
2018-06-23T00:48:19.315Z,4.33
2018-06-23T00:51:21.592Z,3.90
2018-06-23T00:54:23.872Z,4.40
2018-06-23T00:57:26.102Z,4.33
2018-06-23T01:00:28.358Z,3.40
2018-06-23T01:03:30.509Z,4.10
2018-06-23T01:06:32.824Z,3.77
2018-06-23T01:09:35.137Z,4.47
2018-06-23T01:12:37.360Z,5.07
2018-06-23T01:15:39.520Z,4.57
2018-06-23T01:18:43.078Z,4.37
2018-06-23T01:21:45.272Z,4.37
2018-06-23T01:24:47.469Z,5.60
2018-06-23T01:27:49.620Z,4.93
2018-06-23T01:30:51.784Z,5.97
2018-06-23T01:33:54.025Z,5.30
2018-06-23T01:36:56.359Z,5.00
2018-06-23T01:39:58.607Z,5.27
2018-06-23T01:43:02.832Z,5.30
2018-06-23T01:46:05.014Z,6.30
2018-06-23T01:49:07.291Z,5.83
2018-06-23T01:52:09.545Z,6.30
2018-06-23T01:55:11.673Z,5.70
2018-06-23T01:58:13.824Z,7.00
2018-06-23T02:01:16.066Z,6.80
2018-06-23T02:04:18.353Z,6.67
2018-06-23T02:07:20.561Z,6.53
2018-06-23T02:10:22.710Z,5.50
2018-06-23T02:13:24.939Z,5.90
2018-06-23T02:16:32.949Z,6.20
2018-06-23T02:19:40.807Z,6.27
2018-06-23T02:22:48.793Z,5.67
2018-06-23T02:25:56.638Z,6.17
2018-06-23T02:29:04.585Z,7.00
2018-06-23T02:32:12.515Z,6.00
2018-06-23T02:35:14.705Z,6.27
2018-06-23T02:38:16.912Z,7.70
2018-06-23T02:41:19.246Z,6.87
2018-06-23T02:44:21.510Z,5.83
2018-06-23T02:47:23.697Z,6.23
2018-06-23T02:50:25.992Z,6.43
2018-06-23T02:53:28.285Z,6.47
2018-06-23T02:56:30.547Z,7.10
2018-06-23T02:59:32.741Z,6.03
2018-06-23T03:02:34.980Z,6.90
2018-06-23T03:05:37.281Z,7.27
2018-06-23T03:08:39.532Z,6.77
2018-06-23T03:11:41.846Z,7.33
2018-06-23T03:14:44.135Z,7.00
2018-06-23T03:17:46.308Z,6.43
2018-06-23T03:20:48.525Z,6.63
2018-06-23T03:23:50.789Z,8.23
2018-06-23T03:26:52.975Z,8.00
2018-06-23T03:29:55.253Z,7.70
2018-06-23T03:32:57.453Z,6.90
2018-06-23T03:35:59.652Z,7.27
2018-06-23T03:39:04.627Z,7.00
2018-06-23T03:42:06.928Z,6.77
2018-06-23T03:45:09.238Z,7.20
2018-06-23T03:48:11.489Z,7.87
2018-06-23T03:51:13.754Z,7.40
2018-06-23T03:54:15.927Z,8.73
2018-06-23T03:57:18.157Z,9.07
2018-06-23T04:00:20.413Z,9.03
2018-06-23T04:03:22.954Z,8.40
2018-06-23T04:06:26.185Z,9.73
2018-06-23T04:09:28.319Z,8.30
2018-06-23T04:12:30.622Z,9.77
2018-06-23T04:15:32.864Z,9.00
2018-06-23T04:18:35.101Z,10.27
2018-06-23T04:21:37.355Z,9.60
2018-06-23T04:24:42.246Z,10.30
2018-06-23T04:27:44.434Z,9.50
2018-06-23T04:30:46.793Z,9.93
2018-06-23T04:33:49.046Z,9.90
2018-06-23T04:36:51.366Z,10.47
2018-06-23T04:39:53.618Z,10.93
2018-06-23T04:42:55.950Z,9.63
2018-06-23T04:45:58.862Z,9.83
2018-06-23T04:49:01.017Z,9.53
2018-06-23T04:52:03.217Z,10.03
2018-06-23T04:55:05.516Z,9.93
2018-06-23T04:58:07.821Z,10.63
2018-06-23T05:01:09.988Z,8.47
2018-06-23T05:04:12.157Z,10.23
2018-06-23T05:07:14.498Z,9.83
2018-06-23T05:10:17.528Z,10.73
2018-06-23T05:13:19.721Z,11.57
2018-06-23T05:16:21.890Z,12.70
2018-06-23T05:19:24.179Z,13.33
2018-06-23T05:22:26.450Z,13.63
2018-06-23T05:25:28.603Z,13.13
2018-06-23T05:28:30.815Z,14.43
2018-06-23T05:31:33.001Z,13.37
2018-06-23T05:34:35.184Z,13.00
2018-06-23T05:37:37.417Z,12.83
2018-06-23T05:40:39.558Z,12.87
2018-06-23T05:43:41.783Z,15.17
2018-06-23T05:46:45.001Z,12.63
2018-06-23T05:49:47.271Z,13.43
2018-06-23T05:52:49.477Z,13.67
2018-06-23T05:55:51.741Z,12.80
2018-06-23T05:58:54.061Z,11.63
2018-06-23T06:01:56.263Z,12.90
2018-06-23T06:04:58.526Z,11.57
2018-06-23T06:08:00.776Z,10.93
2018-06-23T06:11:03.033Z,10.30
2018-06-23T06:14:05.244Z,10.50
2018-06-23T06:17:32.540Z,9.47
2018-06-23T06:20:35.150Z,8.37
2018-06-23T06:23:37.425Z,8.67
2018-06-23T06:26:39.742Z,8.10
2018-06-23T06:29:41.960Z,6.60
2018-06-23T06:32:44.251Z,7.40
2018-06-23T06:35:46.476Z,7.50
2018-06-23T06:38:50.211Z,7.57
2018-06-23T06:41:52.530Z,6.67
2018-06-23T06:44:54.684Z,5.67
2018-06-23T06:47:56.843Z,5.50
2018-06-23T06:50:59.165Z,5.90
2018-06-23T06:54:01.430Z,4.90
2018-06-23T06:57:03.775Z,5.47
2018-06-23T07:00:06.182Z,6.00
2018-06-23T07:03:08.361Z,5.90
2018-06-23T07:06:10.663Z,5.93
2018-06-23T07:09:13.671Z,5.13
2018-06-23T07:12:15.909Z,5.20
2018-06-23T07:15:18.213Z,5.37
2018-06-23T07:18:20.417Z,4.50
2018-06-23T07:21:22.585Z,6.13
2018-06-23T07:24:24.897Z,5.17
2018-06-23T07:27:27.170Z,4.87
2018-06-23T07:30:30.038Z,5.30
2018-06-23T07:33:32.386Z,5.13
2018-06-23T07:36:34.584Z,4.70
2018-06-23T07:39:36.865Z,5.27
2018-06-23T07:42:39.188Z,5.00
2018-06-23T07:45:41.369Z,5.23
2018-06-23T07:48:43.919Z,5.77
2018-06-23T07:51:46.167Z,4.70
2018-06-23T07:54:48.419Z,5.03
2018-06-23T07:57:50.749Z,5.07
2018-06-23T08:00:52.968Z,4.53
2018-06-23T08:03:55.559Z,5.00
2018-06-23T08:06:57.834Z,5.27
2018-06-23T08:10:00.100Z,4.77
2018-06-23T08:13:02.404Z,4.03
2018-06-23T08:16:05.203Z,4.03
2018-06-23T08:19:08.459Z,3.67
2018-06-23T08:22:10.712Z,3.50
2018-06-23T08:25:12.962Z,3.93
2018-06-23T08:28:15.118Z,3.30
2018-06-23T08:31:17.415Z,2.70
2018-06-23T08:34:19.749Z,3.00
2018-06-23T08:37:22.326Z,3.20
2018-06-23T08:40:24.619Z,2.97
2018-06-23T08:43:26.996Z,2.90
2018-06-23T08:46:30.161Z,2.63
2018-06-23T08:49:32.506Z,2.97
2018-06-23T08:52:34.783Z,3.10
2018-06-23T08:55:37.112Z,1.90
2018-06-23T08:58:39.527Z,2.13
2018-06-23T09:01:41.823Z,2.27
2018-06-23T09:04:44.139Z,2.80
2018-06-23T09:09:40.004Z,1.67
2018-06-23T09:12:43.265Z,1.87
2018-06-23T09:15:46.511Z,1.93
2018-06-23T09:18:50.447Z,1.67
2018-06-23T09:21:53.715Z,1.50
2018-06-23T09:24:56.949Z,1.87
2018-06-23T09:28:00.049Z,1.70
2018-06-23T09:31:03.580Z,1.83
2018-06-23T09:34:06.722Z,1.40
2018-06-23T09:37:09.963Z,1.60
2018-06-23T09:40:13.211Z,1.40
2018-06-23T09:43:16.387Z,1.50
2018-06-23T09:46:19.782Z,1.23
2018-06-23T09:49:22.948Z,1.00
2018-06-23T09:52:25.904Z,1.80
2018-06-23T09:55:29.111Z,1.57
2018-06-23T09:58:32.214Z,1.10
2018-06-23T10:01:35.713Z,0.90
2018-06-23T10:04:39.991Z,1.63
2018-06-23T10:07:43.299Z,1.47
2018-06-23T10:10:46.577Z,1.60
2018-06-23T10:13:49.633Z,1.40
2018-06-23T10:16:53.038Z,1.30
2018-06-23T10:19:56.389Z,1.40
2018-06-23T10:22:59.563Z,1.50
2018-06-23T10:26:02.856Z,1.17
2018-06-23T10:29:06.020Z,1.20
2018-06-23T10:32:09.057Z,1.03
2018-06-23T10:35:12.235Z,1.60
2018-06-23T10:38:15.509Z,0.93
2018-06-23T10:41:18.550Z,1.50
2018-06-23T10:44:21.793Z,1.27
2018-06-23T10:47:25.140Z,1.60
2018-06-23T10:50:28.373Z,1.60
2018-06-23T10:53:31.565Z,1.70
2018-06-23T10:56:35.154Z,1.70
2018-06-23T10:59:38.313Z,1.60
2018-06-23T11:02:41.539Z,1.60
2018-06-23T11:05:44.838Z,1.40
2018-06-23T11:08:49.511Z,1.57
2018-06-23T11:11:53.690Z,1.80
2018-06-23T11:14:56.915Z,1.63
2018-06-23T11:18:00.351Z,1.50
2018-06-23T11:21:03.572Z,1.30
2018-06-23T11:24:06.876Z,1.53
2018-06-23T11:27:10.062Z,1.87
2018-06-23T11:30:13.279Z,1.80
2018-06-23T11:33:16.505Z,1.73
2018-06-23T11:36:19.853Z,1.70
2018-06-23T11:39:23.201Z,2.43
2018-06-23T11:42:26.591Z,2.43
2018-06-23T11:45:29.844Z,3.07
2018-06-23T11:48:33.132Z,3.90
2018-06-23T11:51:36.389Z,5.00
2018-06-23T11:54:39.501Z,5.57
2018-06-23T11:57:42.825Z,4.67
2018-06-23T12:00:46.252Z,3.23
2018-06-23T12:03:49.390Z,3.80
2018-06-23T12:06:52.583Z,3.60
2018-06-23T12:09:55.751Z,3.60
2018-06-23T12:12:59.673Z,3.17
2018-06-23T12:16:02.921Z,2.87
2018-06-23T12:19:06.243Z,3.90
2018-06-23T12:22:09.585Z,3.63
2018-06-23T12:25:12.862Z,3.33
2018-06-23T12:28:16.033Z,3.43
2018-06-23T12:31:19.224Z,3.30
2018-06-23T12:34:22.348Z,4.30
2018-06-23T12:37:25.482Z,4.40
2018-06-23T12:40:28.865Z,3.80
2018-06-23T12:43:32.131Z,3.90
2018-06-23T12:46:54.746Z,4.63
2018-06-23T12:49:58.272Z,4.27
2018-06-23T12:53:03.536Z,4.97
2018-06-23T12:56:06.758Z,4.87
2018-06-23T12:59:09.864Z,4.00
2018-06-23T13:02:13.144Z,4.67
2018-06-23T13:05:16.213Z,5.10
2018-06-23T13:08:19.454Z,4.33
2018-06-23T13:11:22.788Z,4.37
2018-06-23T13:14:25.915Z,4.60
2018-06-23T13:17:29.252Z,4.37
2018-06-23T13:20:33.671Z,3.37
2018-06-23T13:23:37.001Z,3.50
2018-06-23T13:26:40.146Z,3.20
2018-06-23T13:29:43.366Z,3.97
2018-06-23T13:32:47.574Z,4.57
2018-06-23T13:35:50.677Z,4.00
2018-06-23T13:38:54.883Z,3.50
2018-06-23T13:41:58.296Z,3.70
2018-06-23T13:45:02.125Z,3.83
2018-06-23T13:48:05.374Z,3.70
2018-06-23T13:51:08.649Z,4.60
2018-06-23T13:54:11.918Z,3.60
2018-06-23T13:57:15.392Z,4.50
2018-06-23T14:00:18.935Z,3.50
2018-06-23T14:03:22.396Z,4.10
2018-06-23T14:06:26.607Z,3.53
2018-06-23T14:09:29.887Z,4.13
2018-06-23T14:12:33.094Z,4.00
2018-06-23T14:15:37.493Z,3.80
2018-06-23T14:18:40.910Z,4.00
2018-06-23T14:21:44.058Z,4.43
2018-06-23T14:24:47.419Z,4.00
2018-06-23T14:27:51.029Z,4.67
2018-06-23T14:30:54.303Z,4.30
2018-06-23T14:33:57.636Z,4.27
2018-06-23T14:37:01.190Z,4.17
2018-06-23T14:40:04.858Z,4.00
2018-06-23T14:43:08.087Z,4.00
2018-06-23T14:46:11.414Z,4.37
2018-06-23T14:49:14.370Z,4.07
2018-06-23T14:52:17.404Z,4.07
2018-06-23T14:55:20.640Z,3.83
2018-06-23T14:58:23.936Z,3.37
2018-06-23T15:01:27.359Z,2.77
2018-06-23T15:04:30.610Z,2.70
2018-06-23T15:07:33.987Z,2.73
2018-06-23T15:10:55.327Z,2.40
2018-06-23T15:13:58.703Z,2.83
2018-06-23T15:17:03.219Z,2.70
2018-06-23T15:20:06.599Z,2.03
2018-06-23T15:23:10.045Z,2.00
2018-06-23T15:26:13.064Z,1.57
2018-06-23T15:29:16.107Z,1.80
2018-06-23T15:32:24.661Z,1.93
2018-06-23T15:35:27.760Z,1.90
2018-06-23T15:38:33.018Z,2.03
2018-06-23T15:41:37.260Z,1.60
2018-06-23T15:44:40.372Z,2.00
2018-06-23T15:47:43.853Z,1.67
2018-06-23T15:50:47.265Z,1.93
2018-06-23T15:53:50.546Z,1.87
2018-06-23T15:56:53.851Z,1.83
2018-06-23T15:59:57.004Z,1.83
2018-06-23T16:03:00.157Z,1.57
2018-06-23T16:06:04.568Z,1.83
2018-06-23T16:09:09.094Z,1.60
2018-06-23T16:12:12.242Z,1.60
2018-06-23T16:15:15.768Z,1.50
2018-06-23T16:18:18.830Z,1.27
2018-06-23T16:21:22.012Z,1.83
2018-06-23T16:24:25.666Z,1.80
2018-06-23T16:27:28.658Z,1.70
2018-06-23T16:30:31.900Z,1.60
2018-06-23T16:33:34.994Z,1.57
2018-06-23T16:36:38.104Z,1.30
2018-06-23T16:39:41.478Z,1.67
2018-06-23T16:42:44.691Z,1.63
2018-06-23T16:45:48.837Z,1.80
2018-06-23T16:48:52.248Z,1.10
2018-06-23T16:51:55.343Z,1.00
2018-06-23T16:54:58.349Z,1.70
2018-06-23T16:58:01.600Z,1.50
2018-06-23T17:01:04.761Z,1.47
2018-06-23T17:04:07.987Z,1.70
2018-06-23T17:07:11.015Z,1.40
2018-06-23T17:10:14.320Z,1.97
2018-06-23T17:13:17.561Z,1.63
2018-06-23T17:16:29.855Z,1.93
2018-06-23T17:19:33.056Z,2.63
2018-06-23T17:22:36.147Z,2.07
2018-06-23T17:25:39.116Z,2.00
2018-06-23T17:28:42.852Z,1.80
2018-06-23T17:31:46.056Z,1.77
2018-06-23T17:34:49.160Z,2.40
2018-06-23T17:37:52.334Z,2.50
2018-06-23T17:40:55.487Z,2.67
2018-06-23T17:43:58.745Z,2.63
2018-06-23T17:47:01.894Z,5.37
2018-06-23T17:50:05.156Z,16.90
2018-06-23T17:53:08.361Z,18.60
2018-06-23T17:56:11.467Z,12.43
2018-06-23T17:59:14.738Z,8.90
2018-06-23T18:02:18.243Z,9.50
2018-06-23T18:05:21.292Z,17.90
2018-06-23T18:08:24.465Z,14.63
2018-06-23T18:11:27.665Z,9.23
2018-06-23T18:14:30.870Z,11.00
2018-06-23T18:17:34.167Z,6.53
2018-06-23T18:20:38.364Z,6.40
2018-06-23T18:23:41.522Z,7.00
2018-06-23T18:26:44.645Z,5.17
2018-06-23T18:29:47.828Z,6.73
2018-06-23T18:32:50.934Z,4.33
2018-06-23T18:35:54.093Z,2.80
2018-06-23T18:38:57.346Z,3.40
2018-06-23T18:42:00.504Z,2.93
2018-06-23T18:45:03.672Z,2.27
2018-06-23T18:48:06.743Z,2.60
2018-06-23T18:51:09.839Z,2.37
2018-06-23T18:54:13.022Z,2.70
2018-06-23T18:57:16.101Z,2.77
2018-06-23T19:00:20.274Z,2.53
2018-06-23T19:03:23.441Z,2.43
2018-06-23T19:06:26.520Z,3.13
2018-06-23T19:09:29.537Z,3.77
2018-06-23T19:12:32.905Z,2.53
2018-06-23T19:15:36.065Z,2.70
2018-06-23T19:18:39.176Z,2.37
2018-06-23T19:21:42.330Z,3.10
2018-06-23T19:24:45.387Z,3.80
2018-06-23T19:27:48.566Z,3.83
2018-06-23T19:30:51.685Z,4.30
2018-06-23T19:33:54.733Z,4.53
2018-06-23T19:36:57.825Z,4.60
2018-06-23T19:40:00.854Z,3.93
2018-06-23T19:43:04.106Z,3.30
2018-06-23T19:46:07.190Z,4.33
2018-06-23T19:49:10.193Z,3.80
2018-06-23T19:52:13.343Z,4.50
2018-06-23T19:55:16.629Z,4.73
2018-06-23T19:58:19.886Z,4.30
2018-06-23T20:01:23.096Z,4.40
2018-06-23T20:04:27.262Z,4.87
2018-06-23T20:07:30.481Z,4.10
2018-06-23T20:10:33.532Z,7.97
2018-06-23T20:13:36.672Z,4.67
2018-06-23T20:16:39.912Z,4.57
2018-06-23T20:19:42.863Z,4.47
2018-06-23T20:22:45.921Z,5.20
2018-06-23T20:25:48.999Z,4.93
2018-06-23T20:28:52.653Z,4.60
2018-06-23T20:31:56.761Z,5.33
2018-06-23T20:35:00.049Z,5.20
2018-06-23T20:38:03.205Z,4.40
2018-06-23T20:41:06.294Z,5.03
2018-06-23T20:44:09.332Z,5.00
2018-06-23T20:47:12.528Z,4.80
2018-06-23T20:50:15.739Z,5.50
2018-06-23T20:53:18.817Z,7.33
2018-06-23T20:56:21.874Z,7.93
2018-06-23T20:59:24.922Z,6.90
2018-06-23T21:02:28.163Z,4.43
2018-06-23T21:05:31.179Z,5.00
2018-06-23T21:08:34.856Z,5.00
2018-06-23T21:11:38.018Z,4.70
2018-06-23T21:14:41.228Z,4.57
2018-06-23T21:17:44.356Z,5.43
2018-06-23T21:20:47.447Z,5.43
2018-06-23T21:23:50.588Z,5.60
2018-06-23T21:26:53.732Z,5.10
2018-06-23T21:29:56.878Z,6.60
2018-06-23T21:33:00.066Z,5.00
2018-06-23T21:36:03.206Z,5.60
2018-06-23T21:39:07.233Z,5.33
2018-06-23T21:42:10.237Z,4.67
2018-06-23T21:45:13.341Z,4.73
2018-06-23T21:48:16.474Z,4.73
2018-06-23T21:51:19.542Z,4.73
2018-06-23T21:54:22.639Z,4.90
2018-06-23T21:57:26.601Z,4.80
2018-06-23T22:00:35.246Z,5.17
2018-06-23T22:03:39.386Z,4.90
2018-06-23T22:06:42.460Z,5.23
2018-06-23T22:09:45.524Z,4.43
2018-06-23T22:12:48.678Z,4.60
2018-06-23T22:15:51.712Z,4.40
2018-06-23T22:18:54.703Z,5.43
2018-06-23T22:21:57.753Z,5.50
2018-06-23T22:25:00.798Z,4.53
2018-06-23T22:28:03.970Z,4.27
2018-06-23T22:31:07.135Z,4.63
2018-06-23T22:34:10.281Z,4.13
2018-06-23T22:37:13.425Z,4.33
2018-06-23T22:40:16.490Z,6.20
2018-06-23T22:43:19.487Z,4.90
2018-06-23T22:46:22.701Z,4.60
2018-06-23T22:49:26.803Z,4.80
2018-06-23T22:52:29.943Z,5.13
2018-06-23T22:55:33.286Z,4.60
2018-06-23T22:58:36.430Z,4.00
2018-06-23T23:01:39.565Z,4.57
2018-06-23T23:04:42.729Z,4.80
2018-06-23T23:07:46.724Z,4.73
2018-06-23T23:10:51.558Z,3.97
2018-06-23T23:13:55.573Z,4.73
2018-06-23T23:17:00.041Z,4.60
2018-06-23T23:20:03.238Z,4.33
2018-06-23T23:23:06.344Z,4.63
2018-06-23T23:26:09.433Z,3.77
2018-06-23T23:29:13.550Z,4.93
2018-06-23T23:32:16.859Z,5.47
2018-06-23T23:35:20.206Z,5.30
2018-06-23T23:38:23.296Z,5.20
2018-06-23T23:41:26.333Z,5.10
2018-06-23T23:44:29.405Z,5.40
2018-06-23T23:47:32.561Z,5.47
2018-06-23T23:50:35.686Z,4.80
2018-06-23T23:53:38.801Z,5.27
2018-06-23T23:56:41.785Z,5.23
2018-06-23T23:59:44.803Z,4.90
